Terminal Aerodrome Forecast
Issued by NWS El Paso, TX

Home | Current Version | Previous Version | Text Only | Print | Product List | Glossary On
Versions: 1 2 3 4 5 6 7 8 9 10 11 12 13 14
000
FTUS44 KEPZ 050200 AAA
TAFELP
TAF AMD
KELP 050250Z 0503/0524 34012KT P6SM VCSH SCT070 BKN120 BKN200
     FM050900 30007KT P6SM SCT090 SCT250
     FM051600 25012KT P6SM SCT250
     FM052100 25015G27KT P6SM FEW120 FEW250=

USA.gov is the U.S. government's official web portal to all federal, state and local government web resources and services.